sensor_id;sensor_type;location;lat;lon;timestamp;P1;durP1;ratioP1;P2;durP2;ratioP2
9445;SDS011;4761;49.490;10.908;2023-03-26T00:00:45;0.67;;;0.50;;
9445;SDS011;4761;49.490;10.908;2023-03-26T00:03:13;1.00;;;0.50;;
9445;SDS011;4761;49.490;10.908;2023-03-26T00:05:40;1.20;;;0.60;;
9445;SDS011;4761;49.490;10.908;2023-03-26T00:08:07;1.13;;;0.67;;
9445;SDS011;4761;49.490;10.908;2023-03-26T00:10:37;0.60;;;0.50;;
9445;SDS011;4761;49.490;10.908;2023-03-26T00:13:05;0.80;;;0.57;;
9445;SDS011;4761;49.490;10.908;2023-03-26T00:15:31;0.70;;;0.50;;
9445;SDS011;4761;49.490;10.908;2023-03-26T00:17:58;0.87;;;0.50;;
9445;SDS011;4761;49.490;10.908;2023-03-26T00:20:24;0.40;;;0.40;;
9445;SDS011;4761;49.490;10.908;2023-03-26T00:22:51;0.50;;;0.40;;
9445;SDS011;4761;49.490;10.908;2023-03-26T00:25:19;1.57;;;0.57;;
9445;SDS011;4761;49.490;10.908;2023-03-26T00:27:45;0.73;;;0.50;;
9445;SDS011;4761;49.490;10.908;2023-03-26T00:30:11;1.30;;;0.73;;
9445;SDS011;4761;49.490;10.908;2023-03-26T00:32:37;1.17;;;0.60;;
9445;SDS011;4761;49.490;10.908;2023-03-26T00:35:03;1.27;;;0.53;;
9445;SDS011;4761;49.490;10.908;2023-03-26T00:37:29;1.47;;;0.60;;
9445;SDS011;4761;49.490;10.908;2023-03-26T00:39:55;0.93;;;0.60;;
9445;SDS011;4761;49.490;10.908;2023-03-26T00:42:27;0.90;;;0.50;;
9445;SDS011;4761;49.490;10.908;2023-03-26T00:44:53;0.40;;;0.40;;
9445;SDS011;4761;49.490;10.908;2023-03-26T00:47:19;0.77;;;0.50;;
9445;SDS011;4761;49.490;10.908;2023-03-26T00:49:45;2.13;;;0.60;;
9445;SDS011;4761;49.490;10.908;2023-03-26T00:52:12;1.47;;;0.80;;
9445;SDS011;4761;49.490;10.908;2023-03-26T00:54:38;0.80;;;0.60;;
9445;SDS011;4761;49.490;10.908;2023-03-26T00:57:04;1.40;;;0.70;;
9445;SDS011;4761;49.490;10.908;2023-03-26T00:59:30;0.93;;;0.67;;
9445;SDS011;4761;49.490;10.908;2023-03-26T01:01:59;1.60;;;0.60;;
9445;SDS011;4761;49.490;10.908;2023-03-26T01:04:27;1.53;;;0.70;;
9445;SDS011;4761;49.490;10.908;2023-03-26T01:06:55;1.07;;;0.60;;
9445;SDS011;4761;49.490;10.908;2023-03-26T01:09:27;1.37;;;0.87;;
9445;SDS011;4761;49.490;10.908;2023-03-26T01:12:02;1.30;;;0.63;;
9445;SDS011;4761;49.490;10.908;2023-03-26T01:14:30;1.77;;;0.80;;
9445;SDS011;4761;49.490;10.908;2023-03-26T01:16:58;1.33;;;0.80;;
9445;SDS011;4761;49.490;10.908;2023-03-26T01:22:03;1.77;;;0.70;;
9445;SDS011;4761;49.490;10.908;2023-03-26T01:24:31;1.07;;;0.60;;
9445;SDS011;4761;49.490;10.908;2023-03-26T01:27:11;0.77;;;0.50;;
9445;SDS011;4761;49.490;10.908;2023-03-26T01:29:51;1.00;;;0.60;;
9445;SDS011;4761;49.490;10.908;2023-03-26T01:32:25;1.50;;;0.73;;
9445;SDS011;4761;49.490;10.908;2023-03-26T01:35:13;1.30;;;0.80;;
9445;SDS011;4761;49.490;10.908;2023-03-26T01:40:35;2.97;;;0.93;;
9445;SDS011;4761;49.490;10.908;2023-03-26T01:46:01;1.40;;;0.70;;
9445;SDS011;4761;49.490;10.908;2023-03-26T01:48:30;1.57;;;0.63;;
9445;SDS011;4761;49.490;10.908;2023-03-26T01:51:00;0.93;;;0.60;;
9445;SDS011;4761;49.490;10.908;2023-03-26T01:53:26;0.67;;;0.57;;
9445;SDS011;4761;49.490;10.908;2023-03-26T01:56:01;0.90;;;0.50;;
9445;SDS011;4761;49.490;10.908;2023-03-26T02:01:29;1.37;;;0.77;;
9445;SDS011;4761;49.490;10.908;2023-03-26T02:06:46;1.60;;;0.87;;
9445;SDS011;4761;49.490;10.908;2023-03-26T02:09:19;1.10;;;0.60;;
9445;SDS011;4761;49.490;10.908;2023-03-26T02:11:48;1.17;;;0.60;;
9445;SDS011;4761;49.490;10.908;2023-03-26T02:14:15;2.00;;;0.80;;
9445;SDS011;4761;49.490;10.908;2023-03-26T02:16:41;0.97;;;0.70;;
9445;SDS011;4761;49.490;10.908;2023-03-26T02:19:10;1.77;;;0.80;;
9445;SDS011;4761;49.490;10.908;2023-03-26T02:21:39;0.90;;;0.50;;
9445;SDS011;4761;49.490;10.908;2023-03-26T02:24:06;1.80;;;0.70;;
9445;SDS011;4761;49.490;10.908;2023-03-26T02:26:33;1.37;;;0.73;;
9445;SDS011;4761;49.490;10.908;2023-03-26T02:29:01;2.30;;;0.60;;
9445;SDS011;4761;49.490;10.908;2023-03-26T02:31:27;2.00;;;0.80;;
9445;SDS011;4761;49.490;10.908;2023-03-26T02:33:54;1.63;;;0.83;;
9445;SDS011;4761;49.490;10.908;2023-03-26T02:36:20;0.50;;;0.50;;
9445;SDS011;4761;49.490;10.908;2023-03-26T02:38:51;1.47;;;0.67;;
9445;SDS011;4761;49.490;10.908;2023-03-26T02:41:17;0.90;;;0.70;;
9445;SDS011;4761;49.490;10.908;2023-03-26T02:43:42;0.73;;;0.60;;
9445;SDS011;4761;49.490;10.908;2023-03-26T02:46:08;1.87;;;0.80;;
9445;SDS011;4761;49.490;10.908;2023-03-26T02:48:33;1.27;;;0.70;;
9445;SDS011;4761;49.490;10.908;2023-03-26T02:50:59;1.87;;;0.87;;
9445;SDS011;4761;49.490;10.908;2023-03-26T02:53:25;1.17;;;0.70;;
9445;SDS011;4761;49.490;10.908;2023-03-26T02:55:53;1.73;;;0.90;;
9445;SDS011;4761;49.490;10.908;2023-03-26T02:58:23;1.13;;;0.70;;
9445;SDS011;4761;49.490;10.908;2023-03-26T03:00:49;1.77;;;0.80;;
9445;SDS011;4761;49.490;10.908;2023-03-26T03:03:18;0.80;;;0.57;;
9445;SDS011;4761;49.490;10.908;2023-03-26T03:05:48;1.27;;;0.80;;
9445;SDS011;4761;49.490;10.908;2023-03-26T03:08:16;1.67;;;0.80;;
9445;SDS011;4761;49.490;10.908;2023-03-26T03:10:42;1.93;;;0.80;;
9445;SDS011;4761;49.490;10.908;2023-03-26T03:13:08;1.70;;;0.90;;
9445;SDS011;4761;49.490;10.908;2023-03-26T03:15:33;1.30;;;0.70;;
9445;SDS011;4761;49.490;10.908;2023-03-26T03:17:59;0.90;;;0.70;;
9445;SDS011;4761;49.490;10.908;2023-03-26T03:20:25;1.97;;;0.60;;
9445;SDS011;4761;49.490;10.908;2023-03-26T03:22:50;1.67;;;0.77;;
9445;SDS011;4761;49.490;10.908;2023-03-26T03:25:16;1.27;;;0.73;;
9445;SDS011;4761;49.490;10.908;2023-03-26T03:27:42;0.90;;;0.60;;
9445;SDS011;4761;49.490;10.908;2023-03-26T03:30:08;2.40;;;1.00;;
9445;SDS011;4761;49.490;10.908;2023-03-26T03:32:36;1.67;;;0.80;;
9445;SDS011;4761;49.490;10.908;2023-03-26T03:35:02;1.57;;;0.70;;
9445;SDS011;4761;49.490;10.908;2023-03-26T03:37:28;1.47;;;0.70;;
9445;SDS011;4761;49.490;10.908;2023-03-26T03:39:53;2.07;;;0.90;;
9445;SDS011;4761;49.490;10.908;2023-03-26T03:42:19;1.80;;;0.97;;
9445;SDS011;4761;49.490;10.908;2023-03-26T03:44:45;2.37;;;0.83;;
9445;SDS011;4761;49.490;10.908;2023-03-26T03:47:10;2.60;;;0.80;;
9445;SDS011;4761;49.490;10.908;2023-03-26T03:49:37;2.23;;;0.97;;
9445;SDS011;4761;49.490;10.908;2023-03-26T03:52:03;1.77;;;0.90;;
9445;SDS011;4761;49.490;10.908;2023-03-26T03:54:29;1.83;;;0.83;;
9445;SDS011;4761;49.490;10.908;2023-03-26T03:56:55;1.10;;;0.70;;
9445;SDS011;4761;49.490;10.908;2023-03-26T03:59:20;1.23;;;0.70;;
9445;SDS011;4761;49.490;10.908;2023-03-26T04:01:46;1.80;;;0.90;;
9445;SDS011;4761;49.490;10.908;2023-03-26T04:04:12;1.53;;;0.90;;
9445;SDS011;4761;49.490;10.908;2023-03-26T04:06:38;0.80;;;0.53;;
9445;SDS011;4761;49.490;10.908;2023-03-26T04:09:03;1.93;;;0.90;;
9445;SDS011;4761;49.490;10.908;2023-03-26T04:11:29;1.93;;;0.90;;
9445;SDS011;4761;49.490;10.908;2023-03-26T04:13:54;1.47;;;0.70;;
9445;SDS011;4761;49.490;10.908;2023-03-26T04:16:20;1.77;;;0.83;;
9445;SDS011;4761;49.490;10.908;2023-03-26T04:18:45;1.47;;;0.87;;
9445;SDS011;4761;49.490;10.908;2023-03-26T04:21:11;1.87;;;0.70;;
9445;SDS011;4761;49.490;10.908;2023-03-26T04:23:39;1.60;;;0.77;;
9445;SDS011;4761;49.490;10.908;2023-03-26T04:26:06;1.40;;;0.60;;
9445;SDS011;4761;49.490;10.908;2023-03-26T04:28:47;1.50;;;0.70;;
9445;SDS011;4761;49.490;10.908;2023-03-26T04:31:15;2.23;;;0.90;;
9445;SDS011;4761;49.490;10.908;2023-03-26T04:33:47;1.83;;;0.90;;
9445;SDS011;4761;49.490;10.908;2023-03-26T04:36:15;0.67;;;0.60;;
9445;SDS011;4761;49.490;10.908;2023-03-26T04:38:45;1.47;;;0.80;;
9445;SDS011;4761;49.490;10.908;2023-03-26T04:41:13;1.33;;;0.60;;
9445;SDS011;4761;49.490;10.908;2023-03-26T04:43:39;1.53;;;0.80;;
9445;SDS011;4761;49.490;10.908;2023-03-26T04:46:11;1.33;;;0.70;;
9445;SDS011;4761;49.490;10.908;2023-03-26T04:48:37;1.63;;;0.70;;
9445;SDS011;4761;49.490;10.908;2023-03-26T04:51:03;1.10;;;0.70;;
9445;SDS011;4761;49.490;10.908;2023-03-26T04:53:31;1.80;;;0.87;;
9445;SDS011;4761;49.490;10.908;2023-03-26T04:56:05;0.93;;;0.67;;
9445;SDS011;4761;49.490;10.908;2023-03-26T04:58:39;1.03;;;0.93;;
9445;SDS011;4761;49.490;10.908;2023-03-26T05:01:05;1.43;;;0.70;;
9445;SDS011;4761;49.490;10.908;2023-03-26T05:03:31;1.40;;;0.80;;
9445;SDS011;4761;49.490;10.908;2023-03-26T05:05:57;1.60;;;0.80;;
9445;SDS011;4761;49.490;10.908;2023-03-26T05:08:24;1.07;;;0.77;;
9445;SDS011;4761;49.490;10.908;2023-03-26T05:10:52;1.43;;;0.93;;
9445;SDS011;4761;49.490;10.908;2023-03-26T05:13:21;1.13;;;0.60;;
9445;SDS011;4761;49.490;10.908;2023-03-26T05:15:47;1.40;;;0.80;;
9445;SDS011;4761;49.490;10.908;2023-03-26T05:18:13;1.00;;;0.77;;
9445;SDS011;4761;49.490;10.908;2023-03-26T05:20:38;0.90;;;0.60;;
9445;SDS011;4761;49.490;10.908;2023-03-26T05:23:04;1.10;;;0.80;;
9445;SDS011;4761;49.490;10.908;2023-03-26T05:25:31;2.00;;;0.90;;
9445;SDS011;4761;49.490;10.908;2023-03-26T05:27:56;1.40;;;0.83;;
9445;SDS011;4761;49.490;10.908;2023-03-26T05:30:22;1.20;;;0.80;;
9445;SDS011;4761;49.490;10.908;2023-03-26T05:32:48;1.13;;;0.80;;
9445;SDS011;4761;49.490;10.908;2023-03-26T05:35:14;0.93;;;0.67;;
9445;SDS011;4761;49.490;10.908;2023-03-26T05:37:43;1.30;;;0.60;;
9445;SDS011;4761;49.490;10.908;2023-03-26T05:40:10;2.10;;;0.90;;
9445;SDS011;4761;49.490;10.908;2023-03-26T05:42:38;2.17;;;1.03;;
9445;SDS011;4761;49.490;10.908;2023-03-26T05:45:05;0.70;;;0.60;;
9445;SDS011;4761;49.490;10.908;2023-03-26T05:47:31;1.33;;;0.70;;
9445;SDS011;4761;49.490;10.908;2023-03-26T05:49:57;1.40;;;0.77;;
9445;SDS011;4761;49.490;10.908;2023-03-26T05:52:23;1.20;;;0.80;;
9445;SDS011;4761;49.490;10.908;2023-03-26T05:54:49;2.77;;;1.10;;
9445;SDS011;4761;49.490;10.908;2023-03-26T05:57:14;2.77;;;1.50;;
9445;SDS011;4761;49.490;10.908;2023-03-26T05:59:40;2.13;;;1.10;;
9445;SDS011;4761;49.490;10.908;2023-03-26T06:02:06;1.17;;;0.60;;
9445;SDS011;4761;49.490;10.908;2023-03-26T06:04:33;2.17;;;0.90;;
9445;SDS011;4761;49.490;10.908;2023-03-26T06:06:58;1.70;;;0.80;;
9445;SDS011;4761;49.490;10.908;2023-03-26T06:09:25;1.80;;;0.80;;
9445;SDS011;4761;49.490;10.908;2023-03-26T06:11:51;1.80;;;0.80;;
9445;SDS011;4761;49.490;10.908;2023-03-26T06:14:17;2.70;;;1.20;;
9445;SDS011;4761;49.490;10.908;2023-03-26T06:16:42;1.93;;;1.00;;
9445;SDS011;4761;49.490;10.908;2023-03-26T06:19:08;3.80;;;1.40;;
9445;SDS011;4761;49.490;10.908;2023-03-26T06:21:33;2.73;;;1.40;;
9445;SDS011;4761;49.490;10.908;2023-03-26T06:23:59;2.73;;;1.43;;
9445;SDS011;4761;49.490;10.908;2023-03-26T06:26:24;1.70;;;1.10;;
9445;SDS011;4761;49.490;10.908;2023-03-26T06:28:50;1.50;;;0.90;;
9445;SDS011;4761;49.490;10.908;2023-03-26T06:31:16;2.37;;;1.20;;
9445;SDS011;4761;49.490;10.908;2023-03-26T06:33:43;2.23;;;1.00;;
9445;SDS011;4761;49.490;10.908;2023-03-26T06:36:08;2.30;;;1.33;;
9445;SDS011;4761;49.490;10.908;2023-03-26T06:38:34;1.83;;;1.00;;
9445;SDS011;4761;49.490;10.908;2023-03-26T06:41:03;2.40;;;1.20;;
9445;SDS011;4761;49.490;10.908;2023-03-26T06:43:30;2.23;;;1.20;;
9445;SDS011;4761;49.490;10.908;2023-03-26T06:45:57;2.20;;;1.10;;
9445;SDS011;4761;49.490;10.908;2023-03-26T06:48:24;2.60;;;1.10;;
9445;SDS011;4761;49.490;10.908;2023-03-26T06:50:50;2.43;;;1.07;;
9445;SDS011;4761;49.490;10.908;2023-03-26T06:53:15;2.13;;;0.93;;
9445;SDS011;4761;49.490;10.908;2023-03-26T06:55:41;2.37;;;1.23;;
9445;SDS011;4761;49.490;10.908;2023-03-26T06:58:06;2.17;;;1.00;;
9445;SDS011;4761;49.490;10.908;2023-03-26T07:00:34;2.90;;;1.70;;
9445;SDS011;4761;49.490;10.908;2023-03-26T07:03:01;3.97;;;2.47;;
9445;SDS011;4761;49.490;10.908;2023-03-26T07:05:28;3.03;;;1.90;;
9445;SDS011;4761;49.490;10.908;2023-03-26T07:07:53;2.20;;;1.50;;
9445;SDS011;4761;49.490;10.908;2023-03-26T07:10:19;2.57;;;1.43;;
9445;SDS011;4761;49.490;10.908;2023-03-26T07:12:44;1.90;;;1.00;;
9445;SDS011;4761;49.490;10.908;2023-03-26T07:15:10;2.10;;;1.37;;
9445;SDS011;4761;49.490;10.908;2023-03-26T07:17:36;3.63;;;1.70;;
9445;SDS011;4761;49.490;10.908;2023-03-26T07:20:02;1.80;;;1.23;;
9445;SDS011;4761;49.490;10.908;2023-03-26T07:22:28;2.30;;;1.37;;
9445;SDS011;4761;49.490;10.908;2023-03-26T07:24:54;2.23;;;1.43;;
9445;SDS011;4761;49.490;10.908;2023-03-26T07:30:07;2.07;;;1.33;;
9445;SDS011;4761;49.490;10.908;2023-03-26T07:32:42;2.40;;;1.50;;
9445;SDS011;4761;49.490;10.908;2023-03-26T07:41:16;3.80;;;2.00;;
9445;SDS011;4761;49.490;10.908;2023-03-26T07:46:46;3.47;;;1.90;;
9445;SDS011;4761;49.490;10.908;2023-03-26T07:49:13;2.20;;;1.40;;
9445;SDS011;4761;49.490;10.908;2023-03-26T07:51:39;3.03;;;1.37;;
9445;SDS011;4761;49.490;10.908;2023-03-26T07:54:05;2.57;;;1.40;;
9445;SDS011;4761;49.490;10.908;2023-03-26T07:59:32;2.87;;;1.60;;
9445;SDS011;4761;49.490;10.908;2023-03-26T08:02:21;2.90;;;1.40;;
9445;SDS011;4761;49.490;10.908;2023-03-26T08:08:06;3.03;;;1.67;;
9445;SDS011;4761;49.490;10.908;2023-03-26T08:13:46;1.67;;;1.10;;
9445;SDS011;4761;49.490;10.908;2023-03-26T08:16:39;3.30;;;1.67;;
9445;SDS011;4761;49.490;10.908;2023-03-26T08:22:15;2.93;;;1.50;;
9445;SDS011;4761;49.490;10.908;2023-03-26T08:25:02;2.37;;;1.47;;
9445;SDS011;4761;49.490;10.908;2023-03-26T08:27:42;1.13;;;0.93;;
9445;SDS011;4761;49.490;10.908;2023-03-26T08:30:25;3.83;;;2.73;;
9445;SDS011;4761;49.490;10.908;2023-03-26T08:32:53;4.43;;;2.37;;
9445;SDS011;4761;49.490;10.908;2023-03-26T08:35:20;3.03;;;2.07;;
9445;SDS011;4761;49.490;10.908;2023-03-26T08:37:45;3.10;;;1.90;;
9445;SDS011;4761;49.490;10.908;2023-03-26T08:40:11;3.00;;;1.60;;
9445;SDS011;4761;49.490;10.908;2023-03-26T08:54:16;1.97;;;1.50;;
9445;SDS011;4761;49.490;10.908;2023-03-26T08:59:36;3.00;;;1.37;;
9445;SDS011;4761;49.490;10.908;2023-03-26T09:16:57;1.10;;;0.80;;
9445;SDS011;4761;49.490;10.908;2023-03-26T09:19:58;1.93;;;0.90;;
9445;SDS011;4761;49.490;10.908;2023-03-26T09:39:28;1.33;;;0.90;;
9445;SDS011;4761;49.490;10.908;2023-03-26T10:01:43;2.80;;;1.00;;
9445;SDS011;4761;49.490;10.908;2023-03-26T10:07:07;1.43;;;0.80;;
9445;SDS011;4761;49.490;10.908;2023-03-26T10:10:11;1.63;;;0.90;;
9445;SDS011;4761;49.490;10.908;2023-03-26T10:12:42;1.50;;;1.00;;
9445;SDS011;4761;49.490;10.908;2023-03-26T10:15:12;1.93;;;1.10;;
9445;SDS011;4761;49.490;10.908;2023-03-26T10:17:51;1.80;;;1.00;;
9445;SDS011;4761;49.490;10.908;2023-03-26T10:20:30;1.10;;;1.00;;
9445;SDS011;4761;49.490;10.908;2023-03-26T10:29:33;3.27;;;1.10;;
9445;SDS011;4761;49.490;10.908;2023-03-26T10:31:45;1.70;;;1.03;;
9445;SDS011;4761;49.490;10.908;2023-03-26T10:34:51;1.43;;;1.00;;
9445;SDS011;4761;49.490;10.908;2023-03-26T10:46:10;1.23;;;0.90;;
9445;SDS011;4761;49.490;10.908;2023-03-26T10:54:30;1.37;;;0.93;;
9445;SDS011;4761;49.490;10.908;2023-03-26T11:00:15;1.70;;;1.03;;
9445;SDS011;4761;49.490;10.908;2023-03-26T11:11:31;1.60;;;1.10;;
9445;SDS011;4761;49.490;10.908;2023-03-26T11:14:13;0.97;;;0.80;;
9445;SDS011;4761;49.490;10.908;2023-03-26T11:16:54;1.07;;;0.90;;
9445;SDS011;4761;49.490;10.908;2023-03-26T11:19:40;1.70;;;0.90;;
9445;SDS011;4761;49.490;10.908;2023-03-26T11:25:19;1.50;;;0.93;;
9445;SDS011;4761;49.490;10.908;2023-03-26T11:27:49;1.53;;;0.90;;
9445;SDS011;4761;49.490;10.908;2023-03-26T11:30:47;1.83;;;0.90;;
9445;SDS011;4761;49.490;10.908;2023-03-26T11:33:22;1.40;;;0.77;;
9445;SDS011;4761;49.490;10.908;2023-03-26T11:35:57;0.97;;;0.80;;
9445;SDS011;4761;49.490;10.908;2023-03-26T11:38:33;1.93;;;0.93;;
9445;SDS011;4761;49.490;10.908;2023-03-26T11:41:03;1.57;;;0.90;;
9445;SDS011;4761;49.490;10.908;2023-03-26T11:43:40;1.80;;;0.90;;
9445;SDS011;4761;49.490;10.908;2023-03-26T11:46:09;1.43;;;0.90;;
9445;SDS011;4761;49.490;10.908;2023-03-26T11:48:39;2.97;;;0.77;;
9445;SDS011;4761;49.490;10.908;2023-03-26T11:51:13;1.40;;;0.70;;
9445;SDS011;4761;49.490;10.908;2023-03-26T11:53:53;0.60;;;0.53;;
9445;SDS011;4761;49.490;10.908;2023-03-26T11:56:26;0.70;;;0.70;;
9445;SDS011;4761;49.490;10.908;2023-03-26T11:59:10;2.00;;;0.83;;
9445;SDS011;4761;49.490;10.908;2023-03-26T12:04:11;1.67;;;0.80;;
9445;SDS011;4761;49.490;10.908;2023-03-26T12:06:38;1.23;;;0.80;;
9445;SDS011;4761;49.490;10.908;2023-03-26T12:09:16;1.57;;;0.63;;
9445;SDS011;4761;49.490;10.908;2023-03-26T12:11:42;2.03;;;0.90;;
9445;SDS011;4761;49.490;10.908;2023-03-26T12:14:12;0.90;;;0.80;;
9445;SDS011;4761;49.490;10.908;2023-03-26T12:19:33;1.00;;;0.60;;
9445;SDS011;4761;49.490;10.908;2023-03-26T12:27:41;0.67;;;0.60;;
9445;SDS011;4761;49.490;10.908;2023-03-26T12:32:44;2.37;;;0.93;;
9445;SDS011;4761;49.490;10.908;2023-03-26T12:35:18;1.13;;;0.80;;
9445;SDS011;4761;49.490;10.908;2023-03-26T12:37:50;0.87;;;0.63;;
9445;SDS011;4761;49.490;10.908;2023-03-26T12:40:29;1.67;;;0.83;;
9445;SDS011;4761;49.490;10.908;2023-03-26T12:42:59;1.47;;;1.00;;
9445;SDS011;4761;49.490;10.908;2023-03-26T12:45:38;0.70;;;0.70;;
9445;SDS011;4761;49.490;10.908;2023-03-26T12:48:06;2.10;;;0.90;;
9445;SDS011;4761;49.490;10.908;2023-03-26T12:53:48;0.80;;;0.70;;
9445;SDS011;4761;49.490;10.908;2023-03-26T12:56:46;0.77;;;0.60;;
9445;SDS011;4761;49.490;10.908;2023-03-26T13:08:04;0.97;;;0.70;;
9445;SDS011;4761;49.490;10.908;2023-03-26T13:10:36;2.10;;;0.70;;
9445;SDS011;4761;49.490;10.908;2023-03-26T13:19:01;0.73;;;0.57;;
9445;SDS011;4761;49.490;10.908;2023-03-26T13:24:20;0.90;;;0.80;;
9445;SDS011;4761;49.490;10.908;2023-03-26T13:29:55;0.77;;;0.63;;
9445;SDS011;4761;49.490;10.908;2023-03-26T13:32:55;1.00;;;0.80;;
9445;SDS011;4761;49.490;10.908;2023-03-26T13:35:38;0.83;;;0.70;;
9445;SDS011;4761;49.490;10.908;2023-03-26T13:38:23;2.03;;;0.70;;
9445;SDS011;4761;49.490;10.908;2023-03-26T13:43:58;0.70;;;0.70;;
9445;SDS011;4761;49.490;10.908;2023-03-26T13:46:47;1.17;;;0.70;;
9445;SDS011;4761;49.490;10.908;2023-03-26T13:49:29;0.80;;;0.70;;
9445;SDS011;4761;49.490;10.908;2023-03-26T13:52:15;0.77;;;0.60;;
9445;SDS011;4761;49.490;10.908;2023-03-26T14:03:32;0.80;;;0.50;;
9445;SDS011;4761;49.490;10.908;2023-03-26T14:12:15;1.33;;;0.73;;
9445;SDS011;4761;49.490;10.908;2023-03-26T14:15:05;0.60;;;0.60;;
9445;SDS011;4761;49.490;10.908;2023-03-26T14:17:45;0.80;;;0.60;;
9445;SDS011;4761;49.490;10.908;2023-03-26T14:20:48;1.13;;;0.77;;
9445;SDS011;4761;49.490;10.908;2023-03-26T14:23:41;0.97;;;0.80;;
9445;SDS011;4761;49.490;10.908;2023-03-26T14:26:44;0.87;;;0.60;;
9445;SDS011;4761;49.490;10.908;2023-03-26T14:32:19;1.80;;;0.60;;
9445;SDS011;4761;49.490;10.908;2023-03-26T14:35:17;0.53;;;0.53;;
9445;SDS011;4761;49.490;10.908;2023-03-26T14:41:04;0.77;;;0.70;;
9445;SDS011;4761;49.490;10.908;2023-03-26T14:46:22;0.93;;;0.60;;
9445;SDS011;4761;49.490;10.908;2023-03-26T14:52:07;0.53;;;0.50;;
9445;SDS011;4761;49.490;10.908;2023-03-26T14:54:40;0.70;;;0.50;;
9445;SDS011;4761;49.490;10.908;2023-03-26T15:06:18;0.63;;;0.50;;
9445;SDS011;4761;49.490;10.908;2023-03-26T15:09:06;0.67;;;0.50;;
9445;SDS011;4761;49.490;10.908;2023-03-26T15:12:13;0.90;;;0.60;;
9445;SDS011;4761;49.490;10.908;2023-03-26T15:17:59;0.60;;;0.60;;
9445;SDS011;4761;49.490;10.908;2023-03-26T15:23:24;0.77;;;0.50;;
9445;SDS011;4761;49.490;10.908;2023-03-26T15:26:03;0.70;;;0.60;;
9445;SDS011;4761;49.490;10.908;2023-03-26T15:31:53;0.70;;;0.53;;
9445;SDS011;4761;49.490;10.908;2023-03-26T15:45:44;0.67;;;0.40;;
9445;SDS011;4761;49.490;10.908;2023-03-26T15:49:00;0.57;;;0.50;;
9445;SDS011;4761;49.490;10.908;2023-03-26T15:51:49;0.50;;;0.50;;
9445;SDS011;4761;49.490;10.908;2023-03-26T15:54:28;0.80;;;0.40;;
9445;SDS011;4761;49.490;10.908;2023-03-26T16:02:35;0.50;;;0.50;;
9445;SDS011;4761;49.490;10.908;2023-03-26T16:08:03;0.40;;;0.40;;
9445;SDS011;4761;49.490;10.908;2023-03-26T16:10:49;0.70;;;0.30;;
9445;SDS011;4761;49.490;10.908;2023-03-26T16:25:57;0.63;;;0.50;;
9445;SDS011;4761;49.490;10.908;2023-03-26T16:33:47;0.63;;;0.50;;
9445;SDS011;4761;49.490;10.908;2023-03-26T16:39:22;0.50;;;0.50;;
9445;SDS011;4761;49.490;10.908;2023-03-26T16:45:29;2.13;;;0.60;;
9445;SDS011;4761;49.490;10.908;2023-03-26T16:50:34;1.10;;;0.50;;
9445;SDS011;4761;49.490;10.908;2023-03-26T16:55:56;0.60;;;0.60;;
9445;SDS011;4761;49.490;10.908;2023-03-26T16:58:36;0.70;;;0.50;;
9445;SDS011;4761;49.490;10.908;2023-03-26T17:01:15;0.70;;;0.60;;
9445;SDS011;4761;49.490;10.908;2023-03-26T17:04:03;0.40;;;0.40;;
9445;SDS011;4761;49.490;10.908;2023-03-26T17:09:27;0.47;;;0.40;;
9445;SDS011;4761;49.490;10.908;2023-03-26T17:18:21;0.77;;;0.47;;
9445;SDS011;4761;49.490;10.908;2023-03-26T17:26:45;1.03;;;0.60;;
9445;SDS011;4761;49.490;10.908;2023-03-26T17:29:17;0.47;;;0.47;;
9445;SDS011;4761;49.490;10.908;2023-03-26T17:42:36;0.77;;;0.60;;
9445;SDS011;4761;49.490;10.908;2023-03-26T17:45:06;0.50;;;0.50;;
9445;SDS011;4761;49.490;10.908;2023-03-26T17:47:51;1.23;;;0.60;;
9445;SDS011;4761;49.490;10.908;2023-03-26T17:50:22;0.77;;;0.77;;
9445;SDS011;4761;49.490;10.908;2023-03-26T17:53:01;0.73;;;0.60;;
9445;SDS011;4761;49.490;10.908;2023-03-26T17:55:30;0.80;;;0.60;;
9445;SDS011;4761;49.490;10.908;2023-03-26T17:57:59;1.33;;;0.60;;
9445;SDS011;4761;49.490;10.908;2023-03-26T18:00:31;1.03;;;0.70;;
9445;SDS011;4761;49.490;10.908;2023-03-26T18:03:43;1.27;;;0.60;;
9445;SDS011;4761;49.490;10.908;2023-03-26T18:06:13;0.77;;;0.43;;
9445;SDS011;4761;49.490;10.908;2023-03-26T18:17:47;0.93;;;0.60;;
9445;SDS011;4761;49.490;10.908;2023-03-26T18:20:20;0.50;;;0.50;;
9445;SDS011;4761;49.490;10.908;2023-03-26T18:22:49;0.47;;;0.40;;
9445;SDS011;4761;49.490;10.908;2023-03-26T18:25:28;1.07;;;0.70;;
9445;SDS011;4761;49.490;10.908;2023-03-26T18:27:57;0.90;;;0.53;;
9445;SDS011;4761;49.490;10.908;2023-03-26T18:30:26;0.40;;;0.40;;
9445;SDS011;4761;49.490;10.908;2023-03-26T18:32:53;0.40;;;0.40;;
9445;SDS011;4761;49.490;10.908;2023-03-26T18:35:42;1.10;;;0.60;;
9445;SDS011;4761;49.490;10.908;2023-03-26T18:38:15;1.03;;;0.60;;
9445;SDS011;4761;49.490;10.908;2023-03-26T18:40:43;0.53;;;0.50;;
9445;SDS011;4761;49.490;10.908;2023-03-26T18:43:12;0.60;;;0.60;;
9445;SDS011;4761;49.490;10.908;2023-03-26T18:45:41;0.40;;;0.40;;
9445;SDS011;4761;49.490;10.908;2023-03-26T18:50:44;1.90;;;0.40;;
9445;SDS011;4761;49.490;10.908;2023-03-26T18:53:15;0.70;;;0.50;;
9445;SDS011;4761;49.490;10.908;2023-03-26T18:55:44;0.50;;;0.43;;
9445;SDS011;4761;49.490;10.908;2023-03-26T19:01:07;0.33;;;0.33;;
9445;SDS011;4761;49.490;10.908;2023-03-26T19:03:35;0.80;;;0.60;;
9445;SDS011;4761;49.490;10.908;2023-03-26T19:06:03;0.50;;;0.40;;
9445;SDS011;4761;49.490;10.908;2023-03-26T19:08:34;0.37;;;0.37;;
9445;SDS011;4761;49.490;10.908;2023-03-26T19:11:02;0.90;;;0.60;;
9445;SDS011;4761;49.490;10.908;2023-03-26T19:13:31;0.73;;;0.50;;
9445;SDS011;4761;49.490;10.908;2023-03-26T19:15:58;0.70;;;0.50;;
9445;SDS011;4761;49.490;10.908;2023-03-26T19:18:28;0.50;;;0.40;;
9445;SDS011;4761;49.490;10.908;2023-03-26T19:20:56;0.63;;;0.40;;
9445;SDS011;4761;49.490;10.908;2023-03-26T19:23:25;0.47;;;0.40;;
9445;SDS011;4761;49.490;10.908;2023-03-26T19:25:56;0.50;;;0.50;;
9445;SDS011;4761;49.490;10.908;2023-03-26T19:28:28;0.40;;;0.40;;
9445;SDS011;4761;49.490;10.908;2023-03-26T19:30:58;0.47;;;0.40;;
9445;SDS011;4761;49.490;10.908;2023-03-26T19:33:33;0.47;;;0.40;;
9445;SDS011;4761;49.490;10.908;2023-03-26T19:36:12;1.03;;;0.50;;
9445;SDS011;4761;49.490;10.908;2023-03-26T19:38:43;0.67;;;0.40;;
9445;SDS011;4761;49.490;10.908;2023-03-26T19:41:33;0.73;;;0.50;;
9445;SDS011;4761;49.490;10.908;2023-03-26T19:44:03;0.80;;;0.40;;
9445;SDS011;4761;49.490;10.908;2023-03-26T19:46:39;0.40;;;0.40;;
9445;SDS011;4761;49.490;10.908;2023-03-26T19:49:20;0.37;;;0.37;;
9445;SDS011;4761;49.490;10.908;2023-03-26T19:51:50;0.47;;;0.47;;
9445;SDS011;4761;49.490;10.908;2023-03-26T19:54:17;0.73;;;0.40;;
9445;SDS011;4761;49.490;10.908;2023-03-26T19:56:43;0.30;;;0.30;;
9445;SDS011;4761;49.490;10.908;2023-03-26T19:59:09;0.63;;;0.40;;
9445;SDS011;4761;49.490;10.908;2023-03-26T20:01:35;0.43;;;0.40;;
9445;SDS011;4761;49.490;10.908;2023-03-26T20:04:02;0.40;;;0.40;;
9445;SDS011;4761;49.490;10.908;2023-03-26T20:06:30;0.40;;;0.40;;
9445;SDS011;4761;49.490;10.908;2023-03-26T20:08:57;0.50;;;0.40;;
9445;SDS011;4761;49.490;10.908;2023-03-26T20:11:33;0.53;;;0.40;;
9445;SDS011;4761;49.490;10.908;2023-03-26T20:14:06;0.53;;;0.50;;
9445;SDS011;4761;49.490;10.908;2023-03-26T20:16:36;0.47;;;0.43;;
9445;SDS011;4761;49.490;10.908;2023-03-26T20:19:02;1.23;;;0.60;;
9445;SDS011;4761;49.490;10.908;2023-03-26T20:21:28;0.60;;;0.47;;
9445;SDS011;4761;49.490;10.908;2023-03-26T20:23:56;0.40;;;0.40;;
9445;SDS011;4761;49.490;10.908;2023-03-26T20:26:23;0.67;;;0.50;;
9445;SDS011;4761;49.490;10.908;2023-03-26T20:28:49;0.50;;;0.50;;
9445;SDS011;4761;49.490;10.908;2023-03-26T20:31:16;0.60;;;0.43;;
9445;SDS011;4761;49.490;10.908;2023-03-26T20:33:44;0.53;;;0.40;;
9445;SDS011;4761;49.490;10.908;2023-03-26T20:36:13;0.40;;;0.40;;
9445;SDS011;4761;49.490;10.908;2023-03-26T20:38:40;0.50;;;0.50;;
9445;SDS011;4761;49.490;10.908;2023-03-26T20:41:08;0.50;;;0.40;;
9445;SDS011;4761;49.490;10.908;2023-03-26T20:43:47;0.57;;;0.40;;